Accueil
METAR-TAF:

METAR-TAF

Aéroports :

Aéroport de Londres-Luton

Luton, Angleterre

latitude: 51-52N, longitude: 000-22W, altitude: 160 m

Observation

Le bulletin a été fait il y a 31 minutes, à 05:50 UTC
Vent 3 kt de ouest/nord-ouest
Température 3°C
Humidité 81%
Pression 1023 hPa
Visibilité 10 km ou plus

METAR: EGGW 080550Z AUTO 29003KT 9999 NCD 03/00 Q1023

Heure: 06:21 (06:21 UTC)

Prévision

Le bulletin a été fait il y a 1 heure et 28 minutes, à 04:53 UTC
Prévision valable du 08 à 06 UTC au 09 à 06 UTC
Vent 5 kt de ouest/sud-ouest
Visibilité 10 km ou plus
Quelques nuages à une hauteur de 3500 ft
Probabilité 30%
du 08 à 06 UTC au 08 à 10 UTC
Visibilité: 9000 m
Probabilité 30%
du 09 à 04 UTC au 09 à 06 UTC
Visibilité: 8000 m

TAF: EGGW 080453Z 0806/0906 25005KT 9999 FEW035 PROB30 0806/0810 9000 PROB30 0904/0906 8000

Observations et prévisions météorologiques de plus de 4000 aéroports (messages METAR et TAF).

Les stations disponibles sont représentées par des disques jaunes et rouges sur la carte.

Passer la souris dessus pour voir le nom de la station.

Cliquer dessus pour voir les observations et prévisions météorologiques.

Pour changer de carte: cliquez sur les boutons verts avec une croix noire pour zoomer, sur le bouton vert avec un tiret pour effectuer un zoom arrière, ou sur les flèches vertes pour les cartes adjacentes.


METAR-TAF: